sensor_id;sensor_type;location;lat;lon;timestamp;P1;durP1;ratioP1;P2;durP2;ratioP2
42832;SDS011;64089;51.478;5.692;2023-05-10T00:00:38;6.15;;;3.20;;
42832;SDS011;64089;51.478;5.692;2023-05-10T00:03:04;7.95;;;3.42;;
42832;SDS011;64089;51.478;5.692;2023-05-10T00:05:30;5.40;;;2.90;;
42832;SDS011;64089;51.478;5.692;2023-05-10T00:07:56;5.47;;;3.22;;
42832;SDS011;64089;51.478;5.692;2023-05-10T00:10:22;10.05;;;3.42;;
42832;SDS011;64089;51.478;5.692;2023-05-10T00:12:47;5.50;;;3.15;;
42832;SDS011;64089;51.478;5.692;2023-05-10T00:15:13;6.80;;;3.42;;
42832;SDS011;64089;51.478;5.692;2023-05-10T00:17:39;12.00;;;4.20;;
42832;SDS011;64089;51.478;5.692;2023-05-10T00:20:05;7.60;;;3.95;;
42832;SDS011;64089;51.478;5.692;2023-05-10T00:22:31;8.35;;;3.70;;
42832;SDS011;64089;51.478;5.692;2023-05-10T00:24:57;7.20;;;3.53;;
42832;SDS011;64089;51.478;5.692;2023-05-10T00:27:23;7.40;;;4.07;;
42832;SDS011;64089;51.478;5.692;2023-05-10T00:29:49;7.15;;;3.13;;
42832;SDS011;64089;51.478;5.692;2023-05-10T00:32:14;12.55;;;4.32;;
42832;SDS011;64089;51.478;5.692;2023-05-10T00:34:43;10.75;;;4.30;;
42832;SDS011;64089;51.478;5.692;2023-05-10T00:37:09;10.60;;;4.10;;
42832;SDS011;64089;51.478;5.692;2023-05-10T00:39:34;7.05;;;4.22;;
42832;SDS011;64089;51.478;5.692;2023-05-10T00:42:00;9.82;;;3.85;;
42832;SDS011;64089;51.478;5.692;2023-05-10T00:44:25;9.40;;;3.90;;
42832;SDS011;64089;51.478;5.692;2023-05-10T00:46:51;12.02;;;4.18;;
42832;SDS011;64089;51.478;5.692;2023-05-10T00:49:17;9.05;;;4.50;;
42832;SDS011;64089;51.478;5.692;2023-05-10T00:51:44;8.80;;;4.00;;
42832;SDS011;64089;51.478;5.692;2023-05-10T00:54:13;8.43;;;4.00;;
42832;SDS011;64089;51.478;5.692;2023-05-10T00:56:40;11.80;;;3.92;;
42832;SDS011;64089;51.478;5.692;2023-05-10T00:59:09;8.63;;;4.15;;
42832;SDS011;64089;51.478;5.692;2023-05-10T01:01:35;9.43;;;4.10;;
42832;SDS011;64089;51.478;5.692;2023-05-10T01:04:01;7.10;;;4.10;;
42832;SDS011;64089;51.478;5.692;2023-05-10T01:06:28;10.73;;;4.13;;
42832;SDS011;64089;51.478;5.692;2023-05-10T01:08:53;14.25;;;4.63;;
42832;SDS011;64089;51.478;5.692;2023-05-10T01:11:19;11.70;;;5.35;;
42832;SDS011;64089;51.478;5.692;2023-05-10T01:13:46;9.95;;;4.30;;
42832;SDS011;64089;51.478;5.692;2023-05-10T01:16:17;13.05;;;6.30;;
42832;SDS011;64089;51.478;5.692;2023-05-10T01:18:43;16.17;;;5.65;;
42832;SDS011;64089;51.478;5.692;2023-05-10T01:24:06;17.27;;;5.70;;
42832;SDS011;64089;51.478;5.692;2023-05-10T01:29:20;19.42;;;6.50;;
42832;SDS011;64089;51.478;5.692;2023-05-10T01:32:02;24.52;;;7.65;;
42832;SDS011;64089;51.478;5.692;2023-05-10T01:34:34;18.17;;;7.43;;
42832;SDS011;64089;51.478;5.692;2023-05-10T01:37:07;22.20;;;8.32;;
42832;SDS011;64089;51.478;5.692;2023-05-10T01:39:45;17.25;;;7.45;;
42832;SDS011;64089;51.478;5.692;2023-05-10T01:42:16;25.60;;;9.95;;
42832;SDS011;64089;51.478;5.692;2023-05-10T01:44:49;24.25;;;9.15;;
42832;SDS011;64089;51.478;5.692;2023-05-10T01:47:37;21.00;;;8.02;;
42832;SDS011;64089;51.478;5.692;2023-05-10T01:50:09;31.10;;;10.45;;
42832;SDS011;64089;51.478;5.692;2023-05-10T01:52:42;45.10;;;12.77;;
42832;SDS011;64089;51.478;5.692;2023-05-10T01:55:11;34.13;;;11.90;;
42832;SDS011;64089;51.478;5.692;2023-05-10T01:57:43;48.03;;;13.35;;
42832;SDS011;64089;51.478;5.692;2023-05-10T02:00:11;38.42;;;12.50;;
42832;SDS011;64089;51.478;5.692;2023-05-10T02:02:39;45.70;;;12.27;;
42832;SDS011;64089;51.478;5.692;2023-05-10T02:05:14;41.10;;;12.05;;
42832;SDS011;64089;51.478;5.692;2023-05-10T02:07:43;39.97;;;12.32;;
42832;SDS011;64089;51.478;5.692;2023-05-10T02:10:10;36.05;;;10.65;;
42832;SDS011;64089;51.478;5.692;2023-05-10T02:12:41;40.05;;;11.05;;
42832;SDS011;64089;51.478;5.692;2023-05-10T02:15:08;31.70;;;12.23;;
42832;SDS011;64089;51.478;5.692;2023-05-10T02:17:36;38.88;;;10.75;;
42832;SDS011;64089;51.478;5.692;2023-05-10T02:20:04;38.30;;;11.63;;
42832;SDS011;64089;51.478;5.692;2023-05-10T02:22:31;39.15;;;11.65;;
42832;SDS011;64089;51.478;5.692;2023-05-10T02:24:57;41.38;;;12.80;;
42832;SDS011;64089;51.478;5.692;2023-05-10T02:27:24;34.03;;;11.55;;
42832;SDS011;64089;51.478;5.692;2023-05-10T02:29:52;37.47;;;12.52;;
42832;SDS011;64089;51.478;5.692;2023-05-10T02:32:19;33.50;;;11.43;;
42832;SDS011;64089;51.478;5.692;2023-05-10T02:34:47;36.33;;;13.10;;
42832;SDS011;64089;51.478;5.692;2023-05-10T02:37:18;38.75;;;13.35;;
42832;SDS011;64089;51.478;5.692;2023-05-10T02:39:52;38.08;;;12.63;;
42832;SDS011;64089;51.478;5.692;2023-05-10T02:42:25;35.53;;;12.35;;
42832;SDS011;64089;51.478;5.692;2023-05-10T02:44:53;30.38;;;12.35;;
42832;SDS011;64089;51.478;5.692;2023-05-10T02:47:26;43.00;;;15.13;;
42832;SDS011;64089;51.478;5.692;2023-05-10T02:49:52;40.17;;;13.45;;
42832;SDS011;64089;51.478;5.692;2023-05-10T02:52:21;35.75;;;11.23;;
42832;SDS011;64089;51.478;5.692;2023-05-10T02:57:17;34.00;;;13.20;;
42832;SDS011;64089;51.478;5.692;2023-05-10T02:59:51;49.10;;;14.27;;
42832;SDS011;64089;51.478;5.692;2023-05-10T03:02:16;37.65;;;14.20;;
42832;SDS011;64089;51.478;5.692;2023-05-10T03:04:42;51.95;;;14.68;;
42832;SDS011;64089;51.478;5.692;2023-05-10T03:07:08;52.70;;;15.15;;
42832;SDS011;64089;51.478;5.692;2023-05-10T03:09:34;45.00;;;13.25;;
42832;SDS011;64089;51.478;5.692;2023-05-10T03:15:42;40.42;;;13.23;;
42832;SDS011;64089;51.478;5.692;2023-05-10T03:18:23;40.30;;;14.02;;
42832;SDS011;64089;51.478;5.692;2023-05-10T03:20:55;41.58;;;13.88;;
42832;SDS011;64089;51.478;5.692;2023-05-10T03:23:33;38.28;;;15.27;;
42832;SDS011;64089;51.478;5.692;2023-05-10T03:26:20;39.38;;;12.68;;
42832;SDS011;64089;51.478;5.692;2023-05-10T03:28:50;39.10;;;13.02;;
42832;SDS011;64089;51.478;5.692;2023-05-10T03:31:17;36.67;;;12.40;;
42832;SDS011;64089;51.478;5.692;2023-05-10T03:33:46;38.08;;;13.73;;
42832;SDS011;64089;51.478;5.692;2023-05-10T03:36:13;41.53;;;13.73;;
42832;SDS011;64089;51.478;5.692;2023-05-10T03:38:39;38.35;;;12.82;;
42832;SDS011;64089;51.478;5.692;2023-05-10T03:41:04;38.15;;;12.90;;
42832;SDS011;64089;51.478;5.692;2023-05-10T03:43:30;41.63;;;14.15;;
42832;SDS011;64089;51.478;5.692;2023-05-10T03:45:55;40.88;;;13.85;;
42832;SDS011;64089;51.478;5.692;2023-05-10T03:48:21;36.33;;;12.85;;
42832;SDS011;64089;51.478;5.692;2023-05-10T03:50:47;39.13;;;13.85;;
42832;SDS011;64089;51.478;5.692;2023-05-10T03:53:14;45.03;;;13.40;;
42832;SDS011;64089;51.478;5.692;2023-05-10T03:55:41;40.92;;;12.73;;
42832;SDS011;64089;51.478;5.692;2023-05-10T03:58:06;45.25;;;13.90;;
42832;SDS011;64089;51.478;5.692;2023-05-10T04:00:35;30.90;;;12.82;;
42832;SDS011;64089;51.478;5.692;2023-05-10T04:03:00;41.40;;;13.50;;
42832;SDS011;64089;51.478;5.692;2023-05-10T04:05:26;42.08;;;13.25;;
42832;SDS011;64089;51.478;5.692;2023-05-10T04:07:52;38.20;;;13.20;;
42832;SDS011;64089;51.478;5.692;2023-05-10T04:10:17;34.88;;;12.18;;
42832;SDS011;64089;51.478;5.692;2023-05-10T04:12:43;33.13;;;12.38;;
42832;SDS011;64089;51.478;5.692;2023-05-10T04:15:09;36.42;;;13.25;;
42832;SDS011;64089;51.478;5.692;2023-05-10T04:17:34;32.70;;;12.27;;
42832;SDS011;64089;51.478;5.692;2023-05-10T04:20:00;40.05;;;12.23;;
42832;SDS011;64089;51.478;5.692;2023-05-10T04:22:26;33.85;;;13.32;;
42832;SDS011;64089;51.478;5.692;2023-05-10T04:24:52;47.53;;;13.50;;
42832;SDS011;64089;51.478;5.692;2023-05-10T04:27:18;34.45;;;12.13;;
42832;SDS011;64089;51.478;5.692;2023-05-10T04:29:43;34.03;;;13.38;;
42832;SDS011;64089;51.478;5.692;2023-05-10T04:32:09;39.63;;;12.30;;
42832;SDS011;64089;51.478;5.692;2023-05-10T04:34:35;36.53;;;13.45;;
42832;SDS011;64089;51.478;5.692;2023-05-10T04:37:01;38.08;;;13.75;;
42832;SDS011;64089;51.478;5.692;2023-05-10T04:39:27;41.03;;;13.00;;
42832;SDS011;64089;51.478;5.692;2023-05-10T04:41:52;32.50;;;11.95;;
42832;SDS011;64089;51.478;5.692;2023-05-10T04:44:18;44.65;;;13.38;;
42832;SDS011;64089;51.478;5.692;2023-05-10T04:46:43;35.22;;;12.10;;
42832;SDS011;64089;51.478;5.692;2023-05-10T04:49:09;43.60;;;13.98;;
42832;SDS011;64089;51.478;5.692;2023-05-10T04:51:34;39.25;;;12.60;;
42832;SDS011;64089;51.478;5.692;2023-05-10T04:54:00;43.42;;;13.68;;
42832;SDS011;64089;51.478;5.692;2023-05-10T04:56:25;43.00;;;13.65;;
42832;SDS011;64089;51.478;5.692;2023-05-10T04:58:51;62.70;;;15.63;;
42832;SDS011;64089;51.478;5.692;2023-05-10T05:01:17;46.00;;;16.15;;
42832;SDS011;64089;51.478;5.692;2023-05-10T05:03:42;58.15;;;16.90;;
42832;SDS011;64089;51.478;5.692;2023-05-10T05:06:08;59.90;;;16.70;;
42832;SDS011;64089;51.478;5.692;2023-05-10T05:08:33;64.47;;;15.73;;
42832;SDS011;64089;51.478;5.692;2023-05-10T05:10:59;62.67;;;18.52;;
42832;SDS011;64089;51.478;5.692;2023-05-10T05:13:25;58.50;;;16.10;;
42832;SDS011;64089;51.478;5.692;2023-05-10T05:15:50;52.40;;;16.75;;
42832;SDS011;64089;51.478;5.692;2023-05-10T05:18:16;62.00;;;16.08;;
42832;SDS011;64089;51.478;5.692;2023-05-10T05:20:41;50.30;;;16.48;;
42832;SDS011;64089;51.478;5.692;2023-05-10T05:23:08;49.83;;;15.68;;
42832;SDS011;64089;51.478;5.692;2023-05-10T05:25:34;61.42;;;15.25;;
42832;SDS011;64089;51.478;5.692;2023-05-10T05:28:00;50.60;;;13.35;;
42832;SDS011;64089;51.478;5.692;2023-05-10T05:30:26;48.05;;;15.27;;
42832;SDS011;64089;51.478;5.692;2023-05-10T05:32:52;38.92;;;13.88;;
42832;SDS011;64089;51.478;5.692;2023-05-10T05:35:18;41.63;;;13.38;;
42832;SDS011;64089;51.478;5.692;2023-05-10T05:37:43;45.10;;;13.07;;
42832;SDS011;64089;51.478;5.692;2023-05-10T05:40:12;38.42;;;12.02;;
42832;SDS011;64089;51.478;5.692;2023-05-10T05:42:38;36.00;;;12.15;;
42832;SDS011;64089;51.478;5.692;2023-05-10T05:45:03;34.53;;;11.50;;
42832;SDS011;64089;51.478;5.692;2023-05-10T05:47:30;46.03;;;12.20;;
42832;SDS011;64089;51.478;5.692;2023-05-10T05:49:55;35.38;;;11.43;;
42832;SDS011;64089;51.478;5.692;2023-05-10T05:52:21;29.55;;;10.70;;
42832;SDS011;64089;51.478;5.692;2023-05-10T05:54:46;37.83;;;12.15;;
42832;SDS011;64089;51.478;5.692;2023-05-10T05:57:12;39.22;;;12.57;;
42832;SDS011;64089;51.478;5.692;2023-05-10T05:59:38;44.83;;;19.13;;
42832;SDS011;64089;51.478;5.692;2023-05-10T06:02:07;50.42;;;19.25;;
42832;SDS011;64089;51.478;5.692;2023-05-10T06:04:33;53.22;;;19.05;;
42832;SDS011;64089;51.478;5.692;2023-05-10T06:06:59;52.53;;;19.75;;
42832;SDS011;64089;51.478;5.692;2023-05-10T06:09:24;35.75;;;11.63;;
42832;SDS011;64089;51.478;5.692;2023-05-10T06:11:50;32.75;;;11.32;;
42832;SDS011;64089;51.478;5.692;2023-05-10T06:14:15;39.20;;;12.73;;
42832;SDS011;64089;51.478;5.692;2023-05-10T06:16:41;30.48;;;9.95;;
42832;SDS011;64089;51.478;5.692;2023-05-10T06:19:06;26.00;;;10.40;;
42832;SDS011;64089;51.478;5.692;2023-05-10T06:21:32;23.17;;;9.32;;
42832;SDS011;64089;51.478;5.692;2023-05-10T06:23:58;31.10;;;11.50;;
42832;SDS011;64089;51.478;5.692;2023-05-10T06:26:23;27.13;;;10.52;;
42832;SDS011;64089;51.478;5.692;2023-05-10T06:28:49;24.42;;;9.65;;
42832;SDS011;64089;51.478;5.692;2023-05-10T06:31:15;22.50;;;9.55;;
42832;SDS011;64089;51.478;5.692;2023-05-10T06:33:41;23.95;;;10.23;;
42832;SDS011;64089;51.478;5.692;2023-05-10T06:36:07;32.03;;;9.80;;
42832;SDS011;64089;51.478;5.692;2023-05-10T06:38:32;24.75;;;10.35;;
42832;SDS011;64089;51.478;5.692;2023-05-10T06:40:58;63.03;;;25.38;;
42832;SDS011;64089;51.478;5.692;2023-05-10T06:43:23;144.75;;;51.30;;
42832;SDS011;64089;51.478;5.692;2023-05-10T06:45:51;113.45;;;44.35;;
42832;SDS011;64089;51.478;5.692;2023-05-10T06:48:16;55.40;;;21.77;;
42832;SDS011;64089;51.478;5.692;2023-05-10T06:50:42;21.67;;;9.52;;
42832;SDS011;64089;51.478;5.692;2023-05-10T06:53:08;21.52;;;8.88;;
42832;SDS011;64089;51.478;5.692;2023-05-10T06:55:34;22.63;;;9.23;;
42832;SDS011;64089;51.478;5.692;2023-05-10T06:58:00;21.92;;;8.32;;
42832;SDS011;64089;51.478;5.692;2023-05-10T07:00:25;20.52;;;9.30;;
42832;SDS011;64089;51.478;5.692;2023-05-10T07:02:51;23.38;;;7.65;;
42832;SDS011;64089;51.478;5.692;2023-05-10T07:05:17;27.70;;;9.30;;
42832;SDS011;64089;51.478;5.692;2023-05-10T07:07:43;24.35;;;9.38;;
42832;SDS011;64089;51.478;5.692;2023-05-10T07:10:09;22.60;;;9.73;;
42832;SDS011;64089;51.478;5.692;2023-05-10T07:12:34;20.58;;;9.07;;
42832;SDS011;64089;51.478;5.692;2023-05-10T07:15:00;23.27;;;8.10;;
42832;SDS011;64089;51.478;5.692;2023-05-10T07:17:25;22.30;;;8.68;;
42832;SDS011;64089;51.478;5.692;2023-05-10T07:19:51;19.73;;;9.48;;
42832;SDS011;64089;51.478;5.692;2023-05-10T07:22:17;23.95;;;8.68;;
42832;SDS011;64089;51.478;5.692;2023-05-10T07:24:43;23.67;;;9.32;;
42832;SDS011;64089;51.478;5.692;2023-05-10T07:27:09;17.58;;;9.25;;
42832;SDS011;64089;51.478;5.692;2023-05-10T07:29:34;21.88;;;9.65;;
42832;SDS011;64089;51.478;5.692;2023-05-10T07:32:01;24.02;;;9.50;;
42832;SDS011;64089;51.478;5.692;2023-05-10T07:34:26;21.33;;;9.02;;
42832;SDS011;64089;51.478;5.692;2023-05-10T07:36:53;23.92;;;9.57;;
42832;SDS011;64089;51.478;5.692;2023-05-10T07:39:18;25.35;;;9.90;;
42832;SDS011;64089;51.478;5.692;2023-05-10T07:41:45;19.63;;;9.38;;
42832;SDS011;64089;51.478;5.692;2023-05-10T07:44:11;24.13;;;10.38;;
42832;SDS011;64089;51.478;5.692;2023-05-10T07:46:36;24.35;;;9.38;;
42832;SDS011;64089;51.478;5.692;2023-05-10T07:49:02;24.27;;;9.45;;
42832;SDS011;64089;51.478;5.692;2023-05-10T07:51:28;23.25;;;10.75;;
42832;SDS011;64089;51.478;5.692;2023-05-10T07:53:53;18.65;;;9.05;;
42832;SDS011;64089;51.478;5.692;2023-05-10T07:56:29;25.33;;;9.93;;
42832;SDS011;64089;51.478;5.692;2023-05-10T07:58:56;27.75;;;9.25;;
42832;SDS011;64089;51.478;5.692;2023-05-10T08:01:26;24.98;;;9.52;;
42832;SDS011;64089;51.478;5.692;2023-05-10T08:03:54;28.00;;;9.60;;
42832;SDS011;64089;51.478;5.692;2023-05-10T08:06:23;28.15;;;10.07;;
42832;SDS011;64089;51.478;5.692;2023-05-10T08:08:54;23.55;;;10.07;;
42832;SDS011;64089;51.478;5.692;2023-05-10T08:11:20;26.58;;;9.02;;
42832;SDS011;64089;51.478;5.692;2023-05-10T08:13:46;22.30;;;9.65;;
42832;SDS011;64089;51.478;5.692;2023-05-10T08:16:12;22.23;;;8.82;;
42832;SDS011;64089;51.478;5.692;2023-05-10T08:18:38;25.63;;;8.77;;
42832;SDS011;64089;51.478;5.692;2023-05-10T08:21:05;18.90;;;8.07;;
42832;SDS011;64089;51.478;5.692;2023-05-10T08:23:31;22.83;;;9.35;;
42832;SDS011;64089;51.478;5.692;2023-05-10T08:25:57;20.92;;;8.13;;
42832;SDS011;64089;51.478;5.692;2023-05-10T08:28:23;20.73;;;8.25;;
42832;SDS011;64089;51.478;5.692;2023-05-10T08:30:49;20.80;;;8.40;;
42832;SDS011;64089;51.478;5.692;2023-05-10T08:33:18;17.42;;;6.65;;
42832;SDS011;64089;51.478;5.692;2023-05-10T08:35:44;15.45;;;6.57;;
42832;SDS011;64089;51.478;5.692;2023-05-10T08:38:10;13.43;;;6.53;;
42832;SDS011;64089;51.478;5.692;2023-05-10T08:40:36;17.30;;;6.45;;
42832;SDS011;64089;51.478;5.692;2023-05-10T08:45:33;12.15;;;5.85;;
42832;SDS011;64089;51.478;5.692;2023-05-10T08:48:02;9.25;;;5.18;;
42832;SDS011;64089;51.478;5.692;2023-05-10T08:50:31;12.70;;;5.75;;
42832;SDS011;64089;51.478;5.692;2023-05-10T08:52:57;8.98;;;3.95;;
42832;SDS011;64089;51.478;5.692;2023-05-10T08:55:25;10.52;;;4.65;;
42832;SDS011;64089;51.478;5.692;2023-05-10T08:57:51;10.30;;;4.32;;
42832;SDS011;64089;51.478;5.692;2023-05-10T09:00:17;13.23;;;4.07;;
42832;SDS011;64089;51.478;5.692;2023-05-10T09:02:43;9.65;;;3.45;;
42832;SDS011;64089;51.478;5.692;2023-05-10T09:05:11;9.35;;;4.28;;
42832;SDS011;64089;51.478;5.692;2023-05-10T09:07:37;8.80;;;3.10;;
42832;SDS011;64089;51.478;5.692;2023-05-10T09:10:03;7.50;;;3.08;;
42832;SDS011;64089;51.478;5.692;2023-05-10T09:12:30;10.52;;;3.72;;
42832;SDS011;64089;51.478;5.692;2023-05-10T09:14:55;13.15;;;4.32;;
42832;SDS011;64089;51.478;5.692;2023-05-10T09:17:24;5.72;;;3.30;;
42832;SDS011;64089;51.478;5.692;2023-05-10T09:20:01;7.15;;;3.05;;
42832;SDS011;64089;51.478;5.692;2023-05-10T09:22:28;8.55;;;2.75;;
42832;SDS011;64089;51.478;5.692;2023-05-10T09:25:08;9.95;;;3.20;;
42832;SDS011;64089;51.478;5.692;2023-05-10T09:27:36;65.72;;;27.40;;
42832;SDS011;64089;51.478;5.692;2023-05-10T09:30:03;27.75;;;11.60;;
42832;SDS011;64089;51.478;5.692;2023-05-10T09:35:22;46.72;;;20.13;;
42832;SDS011;64089;51.478;5.692;2023-05-10T09:37:51;10.13;;;5.00;;
42832;SDS011;64089;51.478;5.692;2023-05-10T09:40:25;6.13;;;3.05;;
42832;SDS011;64089;51.478;5.692;2023-05-10T09:45:17;5.65;;;3.03;;
42832;SDS011;64089;51.478;5.692;2023-05-10T09:47:43;7.35;;;3.20;;
42832;SDS011;64089;51.478;5.692;2023-05-10T09:50:09;9.55;;;2.72;;
42832;SDS011;64089;51.478;5.692;2023-05-10T09:55:13;4.07;;;2.67;;
42832;SDS011;64089;51.478;5.692;2023-05-10T09:57:43;5.28;;;3.03;;
42832;SDS011;64089;51.478;5.692;2023-05-10T10:00:08;5.70;;;2.83;;
42832;SDS011;64089;51.478;5.692;2023-05-10T10:02:35;6.45;;;2.55;;
42832;SDS011;64089;51.478;5.692;2023-05-10T10:05:01;6.13;;;2.30;;
42832;SDS011;64089;51.478;5.692;2023-05-10T10:07:28;3.20;;;2.03;;
42832;SDS011;64089;51.478;5.692;2023-05-10T10:09:54;8.13;;;2.20;;
42832;SDS011;64089;51.478;5.692;2023-05-10T10:12:20;4.32;;;2.67;;
42832;SDS011;64089;51.478;5.692;2023-05-10T10:14:49;4.70;;;2.50;;
42832;SDS011;64089;51.478;5.692;2023-05-10T10:17:15;5.00;;;2.78;;
42832;SDS011;64089;51.478;5.692;2023-05-10T10:19:42;4.43;;;2.80;;
42832;SDS011;64089;51.478;5.692;2023-05-10T10:22:08;8.70;;;3.63;;
42832;SDS011;64089;51.478;5.692;2023-05-10T10:24:37;7.55;;;4.50;;
42832;SDS011;64089;51.478;5.692;2023-05-10T10:27:24;7.85;;;3.22;;
42832;SDS011;64089;51.478;5.692;2023-05-10T10:35:33;6.40;;;3.88;;
42832;SDS011;64089;51.478;5.692;2023-05-10T10:38:00;7.18;;;3.60;;
42832;SDS011;64089;51.478;5.692;2023-05-10T10:40:33;5.43;;;3.13;;
42832;SDS011;64089;51.478;5.692;2023-05-10T10:49:08;8.38;;;4.13;;
42832;SDS011;64089;51.478;5.692;2023-05-10T10:51:38;5.60;;;3.95;;
42832;SDS011;64089;51.478;5.692;2023-05-10T10:54:10;6.03;;;3.35;;
42832;SDS011;64089;51.478;5.692;2023-05-10T10:56:36;12.85;;;4.00;;
42832;SDS011;64089;51.478;5.692;2023-05-10T10:59:02;5.40;;;3.53;;
42832;SDS011;64089;51.478;5.692;2023-05-10T11:01:32;9.10;;;3.55;;
42832;SDS011;64089;51.478;5.692;2023-05-10T11:06:29;4.78;;;3.10;;
42832;SDS011;64089;51.478;5.692;2023-05-10T11:08:59;7.00;;;3.00;;
42832;SDS011;64089;51.478;5.692;2023-05-10T11:11:30;15.23;;;7.15;;
42832;SDS011;64089;51.478;5.692;2023-05-10T11:13:56;44.22;;;19.75;;
42832;SDS011;64089;51.478;5.692;2023-05-10T11:16:49;34.40;;;15.57;;
42832;SDS011;64089;51.478;5.692;2023-05-10T11:19:16;15.13;;;5.18;;
42832;SDS011;64089;51.478;5.692;2023-05-10T11:24:29;6.25;;;3.08;;
42832;SDS011;64089;51.478;5.692;2023-05-10T11:26:55;6.32;;;3.20;;
42832;SDS011;64089;51.478;5.692;2023-05-10T11:29:21;7.18;;;3.17;;
42832;SDS011;64089;51.478;5.692;2023-05-10T11:31:47;7.70;;;4.05;;
42832;SDS011;64089;51.478;5.692;2023-05-10T11:34:24;9.15;;;5.20;;
42832;SDS011;64089;51.478;5.692;2023-05-10T11:36:51;12.68;;;6.20;;
42832;SDS011;64089;51.478;5.692;2023-05-10T11:39:21;10.30;;;5.60;;
42832;SDS011;64089;51.478;5.692;2023-05-10T11:41:54;11.25;;;6.18;;
42832;SDS011;64089;51.478;5.692;2023-05-10T11:44:20;13.65;;;6.95;;
42832;SDS011;64089;51.478;5.692;2023-05-10T11:46:46;13.82;;;6.43;;
42832;SDS011;64089;51.478;5.692;2023-05-10T11:49:12;9.93;;;6.10;;
42832;SDS011;64089;51.478;5.692;2023-05-10T11:51:38;10.57;;;5.40;;
42832;SDS011;64089;51.478;5.692;2023-05-10T11:54:08;13.30;;;6.07;;
42832;SDS011;64089;51.478;5.692;2023-05-10T11:56:36;17.63;;;6.30;;
42832;SDS011;64089;51.478;5.692;2023-05-10T11:59:03;10.30;;;5.88;;
42832;SDS011;64089;51.478;5.692;2023-05-10T12:01:28;9.75;;;5.60;;
42832;SDS011;64089;51.478;5.692;2023-05-10T12:03:55;11.55;;;6.05;;
42832;SDS011;64089;51.478;5.692;2023-05-10T12:06:29;10.07;;;6.30;;
42832;SDS011;64089;51.478;5.692;2023-05-10T12:08:57;10.80;;;5.30;;
42832;SDS011;64089;51.478;5.692;2023-05-10T12:11:27;9.85;;;5.00;;
42832;SDS011;64089;51.478;5.692;2023-05-10T12:13:53;8.50;;;4.93;;
42832;SDS011;64089;51.478;5.692;2023-05-10T12:16:22;12.60;;;5.40;;
42832;SDS011;64089;51.478;5.692;2023-05-10T12:18:49;13.48;;;6.30;;
42832;SDS011;64089;51.478;5.692;2023-05-10T12:21:21;11.00;;;6.15;;
42832;SDS011;64089;51.478;5.692;2023-05-10T12:23:47;10.85;;;5.50;;
42832;SDS011;64089;51.478;5.692;2023-05-10T12:26:18;12.18;;;5.53;;
42832;SDS011;64089;51.478;5.692;2023-05-10T12:31:12;12.70;;;4.97;;
42832;SDS011;64089;51.478;5.692;2023-05-10T12:33:47;11.25;;;6.03;;
42832;SDS011;64089;51.478;5.692;2023-05-10T12:36:14;7.90;;;4.63;;
42832;SDS011;64089;51.478;5.692;2023-05-10T12:38:42;10.18;;;5.10;;
42832;SDS011;64089;51.478;5.692;2023-05-10T12:41:10;9.27;;;4.00;;
42832;SDS011;64089;51.478;5.692;2023-05-10T12:43:37;8.73;;;4.22;;
42832;SDS011;64089;51.478;5.692;2023-05-10T12:46:07;10.32;;;4.72;;
42832;SDS011;64089;51.478;5.692;2023-05-10T12:48:35;7.53;;;4.20;;
42832;SDS011;64089;51.478;5.692;2023-05-10T12:51:02;15.27;;;4.97;;
42832;SDS011;64089;51.478;5.692;2023-05-10T12:53:28;9.07;;;4.95;;
42832;SDS011;64089;51.478;5.692;2023-05-10T12:55:55;11.00;;;4.90;;
42832;SDS011;64089;51.478;5.692;2023-05-10T12:58:21;11.25;;;4.60;;
42832;SDS011;64089;51.478;5.692;2023-05-10T13:00:46;10.82;;;4.68;;
42832;SDS011;64089;51.478;5.692;2023-05-10T13:03:12;11.93;;;5.28;;
42832;SDS011;64089;51.478;5.692;2023-05-10T13:05:37;9.45;;;4.70;;
42832;SDS011;64089;51.478;5.692;2023-05-10T13:08:03;14.20;;;5.70;;
42832;SDS011;64089;51.478;5.692;2023-05-10T13:10:29;11.15;;;6.10;;
42832;SDS011;64089;51.478;5.692;2023-05-10T13:12:56;13.32;;;6.72;;
42832;SDS011;64089;51.478;5.692;2023-05-10T13:15:22;12.05;;;6.60;;
42832;SDS011;64089;51.478;5.692;2023-05-10T13:17:47;12.45;;;6.35;;
42832;SDS011;64089;51.478;5.692;2023-05-10T13:20:13;13.80;;;6.53;;
42832;SDS011;64089;51.478;5.692;2023-05-10T13:22:39;13.25;;;6.75;;
42832;SDS011;64089;51.478;5.692;2023-05-10T13:25:08;15.30;;;6.72;;
42832;SDS011;64089;51.478;5.692;2023-05-10T13:27:34;13.93;;;5.85;;
42832;SDS011;64089;51.478;5.692;2023-05-10T13:30:01;12.35;;;5.95;;
42832;SDS011;64089;51.478;5.692;2023-05-10T13:32:28;11.90;;;5.97;;
42832;SDS011;64089;51.478;5.692;2023-05-10T13:34:54;5.95;;;4.43;;
42832;SDS011;64089;51.478;5.692;2023-05-10T13:37:20;6.97;;;4.30;;
42832;SDS011;64089;51.478;5.692;2023-05-10T13:39:46;6.18;;;3.50;;
42832;SDS011;64089;51.478;5.692;2023-05-10T13:42:12;6.30;;;3.88;;
42832;SDS011;64089;51.478;5.692;2023-05-10T13:44:37;6.95;;;4.10;;
42832;SDS011;64089;51.478;5.692;2023-05-10T13:47:03;6.53;;;3.50;;
42832;SDS011;64089;51.478;5.692;2023-05-10T13:49:29;7.75;;;3.95;;
42832;SDS011;64089;51.478;5.692;2023-05-10T13:51:55;10.13;;;4.45;;
42832;SDS011;64089;51.478;5.692;2023-05-10T13:54:21;8.25;;;4.28;;
42832;SDS011;64089;51.478;5.692;2023-05-10T13:56:48;6.15;;;3.88;;
42832;SDS011;64089;51.478;5.692;2023-05-10T13:59:13;11.13;;;4.97;;
42832;SDS011;64089;51.478;5.692;2023-05-10T14:01:42;7.78;;;3.55;;
42832;SDS011;64089;51.478;5.692;2023-05-10T14:04:08;7.65;;;4.30;;
42832;SDS011;64089;51.478;5.692;2023-05-10T14:06:35;8.18;;;4.63;;
42832;SDS011;64089;51.478;5.692;2023-05-10T14:09:01;11.32;;;5.53;;
42832;SDS011;64089;51.478;5.692;2023-05-10T14:11:27;11.50;;;5.13;;
42832;SDS011;64089;51.478;5.692;2023-05-10T14:13:53;11.05;;;5.03;;
42832;SDS011;64089;51.478;5.692;2023-05-10T14:16:19;8.40;;;4.57;;
42832;SDS011;64089;51.478;5.692;2023-05-10T14:18:45;6.43;;;4.40;;
42832;SDS011;64089;51.478;5.692;2023-05-10T14:21:11;7.80;;;4.90;;
42832;SDS011;64089;51.478;5.692;2023-05-10T14:23:37;12.95;;;5.00;;
42832;SDS011;64089;51.478;5.692;2023-05-10T14:26:02;13.15;;;5.60;;
42832;SDS011;64089;51.478;5.692;2023-05-10T14:28:28;9.70;;;5.75;;
42832;SDS011;64089;51.478;5.692;2023-05-10T14:30:53;10.93;;;6.25;;
42832;SDS011;64089;51.478;5.692;2023-05-10T14:33:19;18.15;;;5.55;;
42832;SDS011;64089;51.478;5.692;2023-05-10T14:35:45;10.23;;;5.63;;
42832;SDS011;64089;51.478;5.692;2023-05-10T14:38:11;16.25;;;6.13;;
42832;SDS011;64089;51.478;5.692;2023-05-10T14:40:37;10.45;;;5.75;;
42832;SDS011;64089;51.478;5.692;2023-05-10T14:43:03;10.18;;;5.38;;
42832;SDS011;64089;51.478;5.692;2023-05-10T14:45:28;10.30;;;5.35;;
42832;SDS011;64089;51.478;5.692;2023-05-10T14:47:54;11.73;;;5.60;;
42832;SDS011;64089;51.478;5.692;2023-05-10T14:50:19;11.38;;;5.15;;
42832;SDS011;64089;51.478;5.692;2023-05-10T14:52:45;13.45;;;5.78;;
42832;SDS011;64089;51.478;5.692;2023-05-10T14:55:11;14.35;;;6.80;;
42832;SDS011;64089;51.478;5.692;2023-05-10T14:57:37;13.00;;;5.32;;
42832;SDS011;64089;51.478;5.692;2023-05-10T15:00:03;10.82;;;6.05;;
42832;SDS011;64089;51.478;5.692;2023-05-10T15:02:30;11.85;;;5.30;;
42832;SDS011;64089;51.478;5.692;2023-05-10T15:04:56;15.25;;;6.63;;
42832;SDS011;64089;51.478;5.692;2023-05-10T15:07:22;11.70;;;6.40;;
42832;SDS011;64089;51.478;5.692;2023-05-10T15:09:48;15.02;;;6.68;;
42832;SDS011;64089;51.478;5.692;2023-05-10T15:12:15;12.10;;;6.25;;
42832;SDS011;64089;51.478;5.692;2023-05-10T15:14:41;11.68;;;6.20;;